sensor_id;sensor_type;location;lat;lon;timestamp;pressure;altitude;pressure_sealevel;temperature;humidity
64679;BME280;51094;53.864;27.676;2023-02-22T00:00:57;98492.38;;;-2.06;62.96
64679;BME280;51094;53.864;27.676;2023-02-22T00:03:30;98621.69;;;-1.07;63.19
64679;BME280;51094;53.864;27.676;2023-02-22T00:06:02;98642.03;;;-0.81;63.11
64679;BME280;51094;53.864;27.676;2023-02-22T00:08:35;98633.19;;;-0.95;62.86
64679;BME280;51094;53.864;27.676;2023-02-22T00:11:04;98639.53;;;-1.07;62.37
64679;BME280;51094;53.864;27.676;2023-02-22T00:13:35;98563.28;;;-1.40;62.56
64679;BME280;51094;53.864;27.676;2023-02-22T00:16:02;98659.34;;;-0.89;62.37
64679;BME280;51094;53.864;27.676;2023-02-22T00:18:29;98642.28;;;-1.13;61.33
64679;BME280;51094;53.864;27.676;2023-02-22T00:20:57;98664.97;;;-1.04;62.11
64679;BME280;51094;53.864;27.676;2023-02-22T00:23:27;98603.28;;;-1.42;61.67
64679;BME280;51094;53.864;27.676;2023-02-22T00:25:56;98635.47;;;-1.38;61.79
64679;BME280;51094;53.864;27.676;2023-02-22T00:28:24;98681.50;;;-1.16;62.11
64679;BME280;51094;53.864;27.676;2023-02-22T00:30:51;98695.28;;;-1.21;61.98
64679;BME280;51094;53.864;27.676;2023-02-22T00:33:19;98679.72;;;-1.39;61.97
64679;BME280;51094;53.864;27.676;2023-02-22T00:35:46;98694.06;;;-1.36;61.51
64679;BME280;51094;53.864;27.676;2023-02-22T00:38:15;98666.44;;;-1.50;62.07
64679;BME280;51094;53.864;27.676;2023-02-22T00:40:42;98692.00;;;-1.25;62.12
64679;BME280;51094;53.864;27.676;2023-02-22T00:43:10;98668.66;;;-1.39;61.92
64679;BME280;51094;53.864;27.676;2023-02-22T00:45:39;98654.34;;;-1.71;62.04
64679;BME280;51094;53.864;27.676;2023-02-22T00:48:06;98685.00;;;-1.45;62.41
64679;BME280;51094;53.864;27.676;2023-02-22T00:50:34;98664.19;;;-1.59;62.16
64679;BME280;51094;53.864;27.676;2023-02-22T00:53:03;98706.31;;;-1.47;62.12
64679;BME280;51094;53.864;27.676;2023-02-22T00:55:33;98721.44;;;-1.41;62.36
64679;BME280;51094;53.864;27.676;2023-02-22T00:58:01;98707.34;;;-1.53;62.52
64679;BME280;51094;53.864;27.676;2023-02-22T01:00:31;98736.00;;;-1.45;62.11
64679;BME280;51094;53.864;27.676;2023-02-22T01:02:58;98741.09;;;-1.45;62.93
64679;BME280;51094;53.864;27.676;2023-02-22T01:05:28;98735.63;;;-1.32;63.23
64679;BME280;51094;53.864;27.676;2023-02-22T01:07:56;98724.13;;;-1.46;62.90
64679;BME280;51094;53.864;27.676;2023-02-22T01:10:25;98750.88;;;-1.31;62.88
64679;BME280;51094;53.864;27.676;2023-02-22T01:12:53;98758.81;;;-1.40;63.02
64679;BME280;51094;53.864;27.676;2023-02-22T01:15:22;98756.84;;;-1.60;62.82
64679;BME280;51094;53.864;27.676;2023-02-22T01:17:51;98775.97;;;-1.45;62.97
64679;BME280;51094;53.864;27.676;2023-02-22T01:20:20;98715.47;;;-1.97;62.93
64679;BME280;51094;53.864;27.676;2023-02-22T01:22:53;98785.53;;;-1.81;63.85
64679;BME280;51094;53.864;27.676;2023-02-22T01:25:23;98776.94;;;-1.49;63.61
64679;BME280;51094;53.864;27.676;2023-02-22T01:27:52;98684.91;;;-1.97;63.16
64679;BME280;51094;53.864;27.676;2023-02-22T01:30:21;98778.81;;;-1.56;63.24
64679;BME280;51094;53.864;27.676;2023-02-22T01:32:50;98779.84;;;-1.61;63.25
64679;BME280;51094;53.864;27.676;2023-02-22T01:35:22;98759.09;;;-2.08;62.67
64679;BME280;51094;53.864;27.676;2023-02-22T01:37:49;98785.81;;;-1.92;62.39
64679;BME280;51094;53.864;27.676;2023-02-22T01:40:37;98809.03;;;-2.03;61.70
64679;BME280;51094;53.864;27.676;2023-02-22T01:43:33;98806.81;;;-2.15;61.48
64679;BME280;51094;53.864;27.676;2023-02-22T01:46:03;98811.38;;;-2.26;61.34
64679;BME280;51094;53.864;27.676;2023-02-22T01:48:42;98727.84;;;-2.77;61.90
64679;BME280;51094;53.864;27.676;2023-02-22T01:51:16;98800.28;;;-2.23;61.94
64679;BME280;51094;53.864;27.676;2023-02-22T01:53:51;98641.75;;;-3.26;61.66
64679;BME280;51094;53.864;27.676;2023-02-22T01:56:21;98773.78;;;-2.49;62.11
64679;BME280;51094;53.864;27.676;2023-02-22T01:58:53;98805.38;;;-2.23;62.19
64679;BME280;51094;53.864;27.676;2023-02-22T02:01:23;98832.75;;;-2.01;61.02
64679;BME280;51094;53.864;27.676;2023-02-22T02:03:54;98848.44;;;-2.16;61.52
64679;BME280;51094;53.864;27.676;2023-02-22T02:06:25;98778.03;;;-2.49;61.17
64679;BME280;51094;53.864;27.676;2023-02-22T02:09:20;98838.38;;;-2.19;61.74
64679;BME280;51094;53.864;27.676;2023-02-22T02:11:52;98841.53;;;-2.11;61.56
64679;BME280;51094;53.864;27.676;2023-02-22T02:14:20;98756.38;;;-2.64;61.46
64679;BME280;51094;53.864;27.676;2023-02-22T02:16:49;98635.44;;;-3.45;61.74
64679;BME280;51094;53.864;27.676;2023-02-22T02:20:07;98850.69;;;-2.04;61.95
64679;BME280;51094;53.864;27.676;2023-02-22T02:35:49;98834.72;;;-2.43;61.48
64679;BME280;51094;53.864;27.676;2023-02-22T02:41:08;98791.84;;;-2.93;60.92
64679;BME280;51094;53.864;27.676;2023-02-22T02:43:50;98790.16;;;-2.93;61.19
64679;BME280;51094;53.864;27.676;2023-02-22T02:49:24;98887.94;;;-2.32;61.54
64679;BME280;51094;53.864;27.676;2023-02-22T02:51:55;98866.97;;;-2.43;61.56
64679;BME280;51094;53.864;27.676;2023-02-22T02:54:23;98802.44;;;-2.75;61.61
64679;BME280;51094;53.864;27.676;2023-02-22T02:56:51;98890.81;;;-2.12;61.24
64679;BME280;51094;53.864;27.676;2023-02-22T03:23:26;98784.31;;;-3.33;60.06
64679;BME280;51094;53.864;27.676;2023-02-22T03:26:08;98941.72;;;-2.46;59.49
64679;BME280;51094;53.864;27.676;2023-02-22T03:28:40;98911.25;;;-2.86;60.35
64679;BME280;51094;53.864;27.676;2023-02-22T03:31:14;98915.63;;;-2.91;60.10
64679;BME280;51094;53.864;27.676;2023-02-22T03:33:52;98901.56;;;-3.07;60.03
64679;BME280;51094;53.864;27.676;2023-02-22T03:36:37;98945.28;;;-2.90;59.28
64679;BME280;51094;53.864;27.676;2023-02-22T03:39:06;98937.19;;;-2.69;59.89
64679;BME280;51094;53.864;27.676;2023-02-22T03:41:36;98903.56;;;-2.83;60.20
64679;BME280;51094;53.864;27.676;2023-02-22T03:44:08;98916.94;;;-2.75;59.86
64679;BME280;51094;53.864;27.676;2023-02-22T03:46:38;98882.66;;;-2.97;60.50
64679;BME280;51094;53.864;27.676;2023-02-22T03:49:13;98910.50;;;-2.89;60.09
64679;BME280;51094;53.864;27.676;2023-02-22T03:51:43;98955.66;;;-2.60;60.77
64679;BME280;51094;53.864;27.676;2023-02-22T03:54:10;98866.84;;;-3.08;60.59
64679;BME280;51094;53.864;27.676;2023-02-22T03:56:50;98974.22;;;-2.57;60.60
64679;BME280;51094;53.864;27.676;2023-02-22T03:59:21;98960.63;;;-2.56;60.69
64679;BME280;51094;53.864;27.676;2023-02-22T04:01:54;98973.19;;;-2.48;59.55
64679;BME280;51094;53.864;27.676;2023-02-22T04:04:23;98919.41;;;-2.70;59.96
64679;BME280;51094;53.864;27.676;2023-02-22T04:06:51;98974.91;;;-2.49;59.85
64679;BME280;51094;53.864;27.676;2023-02-22T04:09:19;98969.84;;;-2.50;60.01
64679;BME280;51094;53.864;27.676;2023-02-22T04:11:47;98982.59;;;-2.52;59.80
64679;BME280;51094;53.864;27.676;2023-02-22T04:14:14;98923.84;;;-2.80;59.56
64679;BME280;51094;53.864;27.676;2023-02-22T04:16:41;98951.47;;;-2.63;59.63
64679;BME280;51094;53.864;27.676;2023-02-22T04:19:08;98965.03;;;-2.62;60.14
64679;BME280;51094;53.864;27.676;2023-02-22T04:21:37;98925.94;;;-2.98;60.80
64679;BME280;51094;53.864;27.676;2023-02-22T04:24:07;98983.66;;;-2.60;60.87
64679;BME280;51094;53.864;27.676;2023-02-22T04:26:34;98983.34;;;-2.47;61.09
64679;BME280;51094;53.864;27.676;2023-02-22T04:29:03;98944.59;;;-2.59;61.05
64679;BME280;51094;53.864;27.676;2023-02-22T04:31:36;98945.06;;;-2.81;60.44
64679;BME280;51094;53.864;27.676;2023-02-22T04:34:03;98998.31;;;-2.33;60.29
64679;BME280;51094;53.864;27.676;2023-02-22T04:36:34;98978.38;;;-2.53;60.47
64679;BME280;51094;53.864;27.676;2023-02-22T04:39:03;98939.41;;;-2.93;60.82
64679;BME280;51094;53.864;27.676;2023-02-22T04:41:31;99000.47;;;-2.53;60.71
64679;BME280;51094;53.864;27.676;2023-02-22T04:43:57;99002.84;;;-2.46;60.77
64679;BME280;51094;53.864;27.676;2023-02-22T04:46:26;99004.38;;;-2.39;60.83
64679;BME280;51094;53.864;27.676;2023-02-22T04:48:53;99007.72;;;-2.37;59.89
64679;BME280;51094;53.864;27.676;2023-02-22T04:51:23;99013.72;;;-2.39;59.96
64679;BME280;51094;53.864;27.676;2023-02-22T04:54:02;98946.75;;;-2.80;60.14
64679;BME280;51094;53.864;27.676;2023-02-22T04:56:31;99016.13;;;-2.33;60.07
64679;BME280;51094;53.864;27.676;2023-02-22T04:58:58;98990.50;;;-2.62;59.83
64679;BME280;51094;53.864;27.676;2023-02-22T05:01:30;98950.34;;;-2.90;60.00
64679;BME280;51094;53.864;27.676;2023-02-22T05:03:57;98972.09;;;-2.75;60.15
64679;BME280;51094;53.864;27.676;2023-02-22T05:06:24;98988.94;;;-2.70;59.87
64679;BME280;51094;53.864;27.676;2023-02-22T05:08:50;98986.69;;;-2.83;60.02
64679;BME280;51094;53.864;27.676;2023-02-22T05:11:18;98993.41;;;-2.79;60.29
64679;BME280;51094;53.864;27.676;2023-02-22T05:13:45;99042.84;;;-2.51;59.80
64679;BME280;51094;53.864;27.676;2023-02-22T05:16:12;98994.31;;;-2.83;60.70
64679;BME280;51094;53.864;27.676;2023-02-22T05:18:39;99002.66;;;-2.75;60.04
64679;BME280;51094;53.864;27.676;2023-02-22T05:21:06;99045.19;;;-2.42;60.19
64679;BME280;51094;53.864;27.676;2023-02-22T05:23:33;99031.66;;;-2.44;60.45
64679;BME280;51094;53.864;27.676;2023-02-22T05:26:00;99056.31;;;-2.09;60.12
64679;BME280;51094;53.864;27.676;2023-02-22T05:28:27;98984.28;;;-2.51;59.81
64679;BME280;51094;53.864;27.676;2023-02-22T05:30:53;99073.28;;;-2.08;60.25
64679;BME280;51094;53.864;27.676;2023-02-22T05:33:20;99041.53;;;-2.30;59.64
64679;BME280;51094;53.864;27.676;2023-02-22T05:35:47;99017.69;;;-2.64;59.98
64679;BME280;51094;53.864;27.676;2023-02-22T05:38:15;99066.13;;;-2.29;60.44
64679;BME280;51094;53.864;27.676;2023-02-22T05:40:42;99084.97;;;-2.36;60.31
64679;BME280;51094;53.864;27.676;2023-02-22T05:43:09;99065.47;;;-2.37;60.21
64679;BME280;51094;53.864;27.676;2023-02-22T05:45:36;99031.91;;;-2.56;60.67
64679;BME280;51094;53.864;27.676;2023-02-22T05:48:03;99064.34;;;-2.25;60.72
64679;BME280;51094;53.864;27.676;2023-02-22T05:50:30;99000.03;;;-2.72;60.52
64679;BME280;51094;53.864;27.676;2023-02-22T05:52:59;99070.38;;;-2.29;60.25
64679;BME280;51094;53.864;27.676;2023-02-22T05:55:26;99085.59;;;-2.26;59.89
64679;BME280;51094;53.864;27.676;2023-02-22T05:57:53;98985.16;;;-2.90;60.30
64679;BME280;51094;53.864;27.676;2023-02-22T06:00:26;99090.72;;;-2.28;60.33
64679;BME280;51094;53.864;27.676;2023-02-22T06:02:57;99074.19;;;-2.49;60.08
64679;BME280;51094;53.864;27.676;2023-02-22T06:05:25;98925.31;;;-3.48;60.40
64679;BME280;51094;53.864;27.676;2023-02-22T06:07:53;99097.69;;;-2.36;60.43
64679;BME280;51094;53.864;27.676;2023-02-22T06:10:20;99104.38;;;-2.30;60.36
64679;BME280;51094;53.864;27.676;2023-02-22T06:12:48;99035.59;;;-2.69;60.34
64679;BME280;51094;53.864;27.676;2023-02-22T06:15:16;99111.78;;;-2.20;60.71
64679;BME280;51094;53.864;27.676;2023-02-22T06:17:43;99107.69;;;-2.27;59.92
64679;BME280;51094;53.864;27.676;2023-02-22T06:20:12;99127.19;;;-2.26;60.06
64679;BME280;51094;53.864;27.676;2023-02-22T06:22:40;99131.41;;;-2.25;60.48
64679;BME280;51094;53.864;27.676;2023-02-22T06:25:08;99120.94;;;-2.13;60.47
64679;BME280;51094;53.864;27.676;2023-02-22T06:27:35;99119.09;;;-2.06;59.94
64679;BME280;51094;53.864;27.676;2023-02-22T06:30:02;99031.41;;;-2.72;60.16
64679;BME280;51094;53.864;27.676;2023-02-22T06:32:30;99098.50;;;-2.34;60.14
64679;BME280;51094;53.864;27.676;2023-02-22T06:34:57;99011.44;;;-2.91;60.04
64679;BME280;51094;53.864;27.676;2023-02-22T06:37:24;99109.31;;;-2.23;59.93
64679;BME280;51094;53.864;27.676;2023-02-22T06:39:51;99088.31;;;-2.34;60.56
64679;BME280;51094;53.864;27.676;2023-02-22T06:42:18;99035.84;;;-2.41;61.00
64679;BME280;51094;53.864;27.676;2023-02-22T06:44:44;99110.91;;;-1.80;60.71
64679;BME280;51094;53.864;27.676;2023-02-22T06:47:11;99058.88;;;-2.09;60.15
64679;BME280;51094;53.864;27.676;2023-02-22T06:49:38;99140.22;;;-1.64;59.94
64679;BME280;51094;53.864;27.676;2023-02-22T06:52:06;99142.91;;;-1.70;59.17
64679;BME280;51094;53.864;27.676;2023-02-22T06:54:34;99155.06;;;-1.80;58.97
64679;BME280;51094;53.864;27.676;2023-02-22T06:57:01;99144.22;;;-1.89;58.73
64679;BME280;51094;53.864;27.676;2023-02-22T06:59:28;99144.63;;;-2.08;58.79
64679;BME280;51094;53.864;27.676;2023-02-22T07:01:55;99108.56;;;-2.28;59.41
64679;BME280;51094;53.864;27.676;2023-02-22T07:04:22;99052.00;;;-2.42;60.06
64679;BME280;51094;53.864;27.676;2023-02-22T07:06:49;99153.16;;;-1.72;58.42
64679;BME280;51094;53.864;27.676;2023-02-22T07:09:17;99134.97;;;-1.93;58.43
64679;BME280;51094;53.864;27.676;2023-02-22T07:11:44;99090.88;;;-2.34;57.63
64679;BME280;51094;53.864;27.676;2023-02-22T07:14:11;99165.50;;;-1.90;58.21
64679;BME280;51094;53.864;27.676;2023-02-22T07:16:38;99160.25;;;-1.84;58.63
64679;BME280;51094;53.864;27.676;2023-02-22T07:19:05;99161.91;;;-1.82;58.45
64679;BME280;51094;53.864;27.676;2023-02-22T07:21:31;99116.53;;;-2.05;58.12
64679;BME280;51094;53.864;27.676;2023-02-22T07:24:01;99154.66;;;-1.63;58.82
64679;BME280;51094;53.864;27.676;2023-02-22T07:26:37;99176.09;;;-1.35;58.73
64679;BME280;51094;53.864;27.676;2023-02-22T07:29:05;99168.16;;;-1.24;58.18
64679;BME280;51094;53.864;27.676;2023-02-22T07:31:36;99176.66;;;-1.23;57.12
64679;BME280;51094;53.864;27.676;2023-02-22T07:34:03;99177.53;;;-1.24;56.86
64679;BME280;51094;53.864;27.676;2023-02-22T07:36:30;99177.78;;;-1.33;57.04
64679;BME280;51094;53.864;27.676;2023-02-22T07:38:57;99148.47;;;-1.53;57.37
64679;BME280;51094;53.864;27.676;2023-02-22T07:41:24;99083.19;;;-1.95;57.05
64679;BME280;51094;53.864;27.676;2023-02-22T07:43:51;99130.59;;;-1.51;57.51
64679;BME280;51094;53.864;27.676;2023-02-22T07:46:18;99182.72;;;-1.27;57.10
64679;BME280;51094;53.864;27.676;2023-02-22T07:48:45;99151.69;;;-1.45;56.54
64679;BME280;51094;53.864;27.676;2023-02-22T07:51:14;99192.03;;;-1.62;56.27
64679;BME280;51094;53.864;27.676;2023-02-22T07:53:42;99172.13;;;-1.46;56.43
64679;BME280;51094;53.864;27.676;2023-02-22T07:56:09;99150.41;;;-1.62;56.60
64679;BME280;51094;53.864;27.676;2023-02-22T07:58:36;99125.75;;;-1.62;55.50
64679;BME280;51094;53.864;27.676;2023-02-22T08:01:03;99195.19;;;-1.15;55.49
64679;BME280;51094;53.864;27.676;2023-02-22T08:03:32;99207.78;;;-1.09;55.07
64679;BME280;51094;53.864;27.676;2023-02-22T08:06:05;99216.53;;;-1.19;54.46
64679;BME280;51094;53.864;27.676;2023-02-22T08:08:33;99195.78;;;-1.40;55.09
64679;BME280;51094;53.864;27.676;2023-02-22T08:11:00;99195.25;;;-1.18;55.61
64679;BME280;51094;53.864;27.676;2023-02-22T08:13:27;99207.03;;;-1.13;55.08
64679;BME280;51094;53.864;27.676;2023-02-22T08:15:54;99079.16;;;-2.04;55.38
64679;BME280;51094;53.864;27.676;2023-02-22T08:18:22;99117.50;;;-1.73;55.63
64679;BME280;51094;53.864;27.676;2023-02-22T08:20:50;99219.88;;;-1.17;55.87
64679;BME280;51094;53.864;27.676;2023-02-22T08:23:19;99215.47;;;-1.11;55.53
64679;BME280;51094;53.864;27.676;2023-02-22T08:25:46;99181.84;;;-1.26;55.18
64679;BME280;51094;53.864;27.676;2023-02-22T08:28:16;99220.28;;;-0.98;55.49
64679;BME280;51094;53.864;27.676;2023-02-22T08:30:43;99225.22;;;-0.91;55.73
64679;BME280;51094;53.864;27.676;2023-02-22T08:33:11;99103.88;;;-1.72;55.25
64679;BME280;51094;53.864;27.676;2023-02-22T08:35:46;99162.41;;;-1.30;55.69
64679;BME280;51094;53.864;27.676;2023-02-22T08:38:24;99164.31;;;-1.39;56.08
64679;BME280;51094;53.864;27.676;2023-02-22T08:40:51;99229.19;;;-0.81;56.24
64679;BME280;51094;53.864;27.676;2023-02-22T08:43:19;99193.38;;;-1.12;56.46
64679;BME280;51094;53.864;27.676;2023-02-22T08:45:47;99240.69;;;-0.97;56.41
64679;BME280;51094;53.864;27.676;2023-02-22T08:48:15;99241.91;;;-1.13;56.42
64679;BME280;51094;53.864;27.676;2023-02-22T08:50:42;99180.69;;;-1.49;56.13
64679;BME280;51094;53.864;27.676;2023-02-22T08:53:11;99214.38;;;-1.35;56.16
64679;BME280;51094;53.864;27.676;2023-02-22T08:55:39;99251.81;;;-1.37;56.21
64679;BME280;51094;53.864;27.676;2023-02-22T08:58:08;99253.44;;;-1.32;56.86
64679;BME280;51094;53.864;27.676;2023-02-22T09:00:36;99213.13;;;-1.55;57.01
64679;BME280;51094;53.864;27.676;2023-02-22T09:03:12;99264.66;;;-1.40;57.29
64679;BME280;51094;53.864;27.676;2023-02-22T09:05:40;99264.78;;;-1.46;56.74
64679;BME280;51094;53.864;27.676;2023-02-22T09:08:08;99200.53;;;-2.02;56.72
64679;BME280;51094;53.864;27.676;2023-02-22T09:10:35;99291.91;;;-1.42;56.47
64679;BME280;51094;53.864;27.676;2023-02-22T09:13:03;99277.38;;;-1.38;56.34
64679;BME280;51094;53.864;27.676;2023-02-22T09:15:31;99251.22;;;-1.48;56.60
64679;BME280;51094;53.864;27.676;2023-02-22T09:17:58;99226.16;;;-1.68;55.83
64679;BME280;51094;53.864;27.676;2023-02-22T09:20:26;99245.78;;;-1.73;56.13
64679;BME280;51094;53.864;27.676;2023-02-22T09:22:54;99288.84;;;-1.59;56.06
64679;BME280;51094;53.864;27.676;2023-02-22T09:25:21;99205.81;;;-2.11;56.20
64679;BME280;51094;53.864;27.676;2023-02-22T09:27:50;99292.88;;;-1.47;56.21
64679;BME280;51094;53.864;27.676;2023-02-22T09:30:30;99268.13;;;-1.44;56.77
64679;BME280;51094;53.864;27.676;2023-02-22T09:33:05;99226.66;;;-1.52;56.36
64679;BME280;51094;53.864;27.676;2023-02-22T09:35:32;99294.41;;;-1.03;55.86
64679;BME280;51094;53.864;27.676;2023-02-22T09:38:03;99314.00;;;-1.04;55.86
64679;BME280;51094;53.864;27.676;2023-02-22T09:40:32;99150.84;;;-1.81;56.27
64679;BME280;51094;53.864;27.676;2023-02-22T09:46:34;99225.03;;;-1.19;55.77
64679;BME280;51094;53.864;27.676;2023-02-22T09:49:33;99295.50;;;-0.78;55.84
64679;BME280;51094;53.864;27.676;2023-02-22T09:52:15;99215.91;;;-1.29;55.63
64679;BME280;51094;53.864;27.676;2023-02-22T09:54:47;99262.22;;;-1.09;55.70
64679;BME280;51094;53.864;27.676;2023-02-22T09:57:27;99222.66;;;-1.26;55.22
64679;BME280;51094;53.864;27.676;2023-02-22T10:00:19;99289.56;;;-0.78;55.66
64679;BME280;51094;53.864;27.676;2023-02-22T10:02:59;99270.69;;;-0.73;55.80
64679;BME280;51094;53.864;27.676;2023-02-22T10:05:36;99181.84;;;-1.26;53.93
64679;BME280;51094;53.864;27.676;2023-02-22T10:08:11;99219.09;;;-1.19;54.20
64679;BME280;51094;53.864;27.676;2023-02-22T10:10:41;99218.00;;;-1.09;54.38
64679;BME280;51094;53.864;27.676;2023-02-22T10:13:28;99302.59;;;-0.55;52.72
64679;BME280;51094;53.864;27.676;2023-02-22T10:30:29;99320.69;;;-0.30;52.81
64679;BME280;51094;53.864;27.676;2023-02-22T10:33:17;99307.44;;;-0.44;52.03
64679;BME280;51094;53.864;27.676;2023-02-22T10:35:46;99289.72;;;-0.50;51.63
64679;BME280;51094;53.864;27.676;2023-02-22T10:38:22;99301.69;;;-0.52;52.61
64679;BME280;51094;53.864;27.676;2023-02-22T10:43:39;99302.25;;;-0.09;52.42
64679;BME280;51094;53.864;27.676;2023-02-22T10:46:11;99313.72;;;0.39;52.99
64679;BME280;51094;53.864;27.676;2023-02-22T10:48:41;99263.56;;;0.89;51.35
64679;BME280;51094;53.864;27.676;2023-02-22T10:51:09;99287.91;;;1.28;50.39
64679;BME280;51094;53.864;27.676;2023-02-22T10:53:37;99289.13;;;1.43;50.70
64679;BME280;51094;53.864;27.676;2023-02-22T10:56:12;99294.28;;;1.68;50.70
64679;BME280;51094;53.864;27.676;2023-02-22T10:58:59;99288.13;;;1.97;49.43
64679;BME280;51094;53.864;27.676;2023-02-22T11:04:17;99272.09;;;2.82;49.86
64679;BME280;51094;53.864;27.676;2023-02-22T11:07:05;99218.72;;;2.68;48.58
64679;BME280;51094;53.864;27.676;2023-02-22T11:12:37;99260.81;;;3.89;48.21
64679;BME280;51094;53.864;27.676;2023-02-22T11:17:55;99305.38;;;4.29;44.48
64679;BME280;51094;53.864;27.676;2023-02-22T11:20:29;99312.53;;;4.22;44.84
64679;BME280;51094;53.864;27.676;2023-02-22T11:23:02;99271.84;;;4.49;44.87
64679;BME280;51094;53.864;27.676;2023-02-22T11:25:35;99234.22;;;4.28;44.49
64679;BME280;51094;53.864;27.676;2023-02-22T11:28:29;99295.34;;;4.60;43.07
64679;BME280;51094;53.864;27.676;2023-02-22T11:30:58;99276.28;;;4.64;43.83
64679;BME280;51094;53.864;27.676;2023-02-22T11:33:35;99294.44;;;5.16;43.93
64679;BME280;51094;53.864;27.676;2023-02-22T11:36:04;99298.31;;;5.42;42.86
64679;BME280;51094;53.864;27.676;2023-02-22T11:38:36;99256.09;;;5.62;42.02
64679;BME280;51094;53.864;27.676;2023-02-22T11:43:33;99267.44;;;6.41;38.25
64679;BME280;51094;53.864;27.676;2023-02-22T11:48:55;99294.78;;;6.45;39.35
64679;BME280;51094;53.864;27.676;2023-02-22T11:51:29;99293.69;;;6.00;37.92
64679;BME280;51094;53.864;27.676;2023-02-22T11:56:35;99308.69;;;6.43;38.97
64679;BME280;51094;53.864;27.676;2023-02-22T11:59:14;99308.09;;;7.00;37.32
64679;BME280;51094;53.864;27.676;2023-02-22T12:02:08;99297.56;;;6.25;36.83
64679;BME280;51094;53.864;27.676;2023-02-22T12:07:47;99329.44;;;5.03;37.73
64679;BME280;51094;53.864;27.676;2023-02-22T12:13:33;99155.69;;;4.73;35.92
64679;BME280;51094;53.864;27.676;2023-02-22T12:16:42;99318.97;;;6.27;37.16
64679;BME280;51094;53.864;27.676;2023-02-22T12:22:31;99326.81;;;7.95;35.28
64679;BME280;51094;53.864;27.676;2023-02-22T12:26:22;99323.53;;;8.50;33.99
64679;BME280;51094;53.864;27.676;2023-02-22T12:28:44;99249.69;;;8.15;31.77
64679;BME280;51094;53.864;27.676;2023-02-22T12:31:20;99329.41;;;8.66;31.59
64679;BME280;51094;53.864;27.676;2023-02-22T12:36:24;99338.13;;;7.64;31.59
64679;BME280;51094;53.864;27.676;2023-02-22T12:38:57;99336.84;;;8.16;31.63
64679;BME280;51094;53.864;27.676;2023-02-22T12:41:32;99286.44;;;8.36;32.04
64679;BME280;51094;53.864;27.676;2023-02-22T12:44:08;99290.44;;;9.09;31.46
64679;BME280;51094;53.864;27.676;2023-02-22T12:46:39;99343.59;;;10.08;28.87
64679;BME280;51094;53.864;27.676;2023-02-22T12:52:13;99310.50;;;10.74;27.39
64679;BME280;51094;53.864;27.676;2023-02-22T12:55:09;99345.38;;;11.90;27.76
64679;BME280;51094;53.864;27.676;2023-02-22T12:57:43;99340.94;;;12.37;27.35
64679;BME280;51094;53.864;27.676;2023-02-22T13:00:20;99350.31;;;12.28;26.31
64679;BME280;51094;53.864;27.676;2023-02-22T13:03:17;99273.38;;;11.19;25.83
64679;BME280;51094;53.864;27.676;2023-02-22T13:11:24;99354.63;;;10.50;26.70
64679;BME280;51094;53.864;27.676;2023-02-22T13:17:11;99370.25;;;10.37;27.31
64679;BME280;51094;53.864;27.676;2023-02-22T13:25:32;99379.00;;;8.32;26.95
64679;BME280;51094;53.864;27.676;2023-02-22T13:28:19;99375.97;;;7.51;27.48
64679;BME280;51094;53.864;27.676;2023-02-22T13:38:44;99389.44;;;6.46;29.36
64679;BME280;51094;53.864;27.676;2023-02-22T13:46:34;99379.06;;;5.61;29.74
64679;BME280;51094;53.864;27.676;2023-02-22T13:52:00;99251.94;;;4.15;31.60
64679;BME280;51094;53.864;27.676;2023-02-22T13:57:00;99228.78;;;2.95;32.29
64679;BME280;51094;53.864;27.676;2023-02-22T13:59:34;99385.44;;;4.03;33.58
64679;BME280;51094;53.864;27.676;2023-02-22T14:02:04;99396.63;;;3.81;33.78
64679;BME280;51094;53.864;27.676;2023-02-22T14:04:36;99379.03;;;3.28;33.88
64679;BME280;51094;53.864;27.676;2023-02-22T14:09:54;99410.16;;;2.76;35.26
64679;BME280;51094;53.864;27.676;2023-02-22T14:17:58;99418.28;;;1.10;37.53
64679;BME280;51094;53.864;27.676;2023-02-22T14:20:35;99396.69;;;0.89;38.07
64679;BME280;51094;53.864;27.676;2023-02-22T14:23:45;99432.63;;;1.15;37.93
64679;BME280;51094;53.864;27.676;2023-02-22T14:26:16;99430.88;;;1.44;38.72
64679;BME280;51094;53.864;27.676;2023-02-22T14:28:58;99428.69;;;1.86;38.00
64679;BME280;51094;53.864;27.676;2023-02-22T14:31:28;99404.75;;;1.85;38.38
64679;BME280;51094;53.864;27.676;2023-02-22T14:34:07;99435.63;;;2.09;37.66
64679;BME280;51094;53.864;27.676;2023-02-22T14:36:53;99426.75;;;1.92;37.98
64679;BME280;51094;53.864;27.676;2023-02-22T14:39:28;99394.19;;;1.15;37.88
64679;BME280;51094;53.864;27.676;2023-02-22T14:42:03;99443.84;;;1.11;38.47
64679;BME280;51094;53.864;27.676;2023-02-22T14:47:34;99455.56;;;0.27;40.05
64679;BME280;51094;53.864;27.676;2023-02-22T14:52:49;99373.72;;;-0.74;40.42
64679;BME280;51094;53.864;27.676;2023-02-22T14:55:24;99412.81;;;-0.72;41.12
64679;BME280;51094;53.864;27.676;2023-02-22T14:57:53;99466.91;;;-0.54;41.80
64679;BME280;51094;53.864;27.676;2023-02-22T15:00:29;99440.97;;;-0.75;42.91
64679;BME280;51094;53.864;27.676;2023-02-22T15:03:02;99410.25;;;-1.10;42.98
64679;BME280;51094;53.864;27.676;2023-02-22T15:05:35;99436.47;;;-1.02;42.80
64679;BME280;51094;53.864;27.676;2023-02-22T15:08:06;99448.69;;;-1.18;43.53
64679;BME280;51094;53.864;27.676;2023-02-22T15:10:44;99478.28;;;-1.08;43.58
64679;BME280;51094;53.864;27.676;2023-02-22T15:13:26;99424.81;;;-1.57;43.88
64679;BME280;51094;53.864;27.676;2023-02-22T15:15:54;99481.13;;;-1.23;44.32
64679;BME280;51094;53.864;27.676;2023-02-22T15:21:10;99489.13;;;-1.40;45.03
64679;BME280;51094;53.864;27.676;2023-02-22T15:23:44;99441.50;;;-1.85;45.34
64679;BME280;51094;53.864;27.676;2023-02-22T15:26:24;99427.53;;;-2.14;45.39
64679;BME280;51094;53.864;27.676;2023-02-22T15:28:54;99513.69;;;-1.83;45.02
64679;BME280;51094;53.864;27.676;2023-02-22T15:36:42;99474.91;;;-2.57;47.24
64679;BME280;51094;53.864;27.676;2023-02-22T15:44:42;99546.13;;;-2.53;47.15
64679;BME280;51094;53.864;27.676;2023-02-22T15:49:43;99555.53;;;-2.56;47.21
64679;BME280;51094;53.864;27.676;2023-02-22T15:52:23;99516.81;;;-2.81;47.27
64679;BME280;51094;53.864;27.676;2023-02-22T15:54:51;99550.44;;;-2.56;47.38